Time;durP1;ratioP1;P1;durP2;ratioP2;P2;SDS_P1;SDS_P2;PMS_P1;PMS_P2;Temp;Humidity;BMP_temperature;BMP_pressure;BME280_temperature;BME280_humidity;BME280_pressure;Samples;Min_cycle;Max_cycle;Signal;HPM_P1;HPM_P2
2022/04/28 00:01:06;;;;;;;8.05;3.05;;;;;;;;;;5123155;27;20637;-69
2022/04/28 00:03:32;;;;;;;6.78;2.88;;;;;;;;;;5122924;27;20046;-69
2022/04/28 00:05:58;;;;;;;7.72;3.00;;;;;;;;;;5122719;27;20132;-69
2022/04/28 00:08:24;;;;;;;8.75;2.80;;;;;;;;;;5123339;27;20039;-70
2022/04/28 00:10:51;;;;;;;8.15;3.15;;;;;;;;;;5122740;27;20050;-69
2022/04/28 00:13:17;;;;;;;6.72;2.95;;;;;;;;;;5104784;27;20035;-69
2022/04/28 00:15:43;;;;;;;7.68;2.65;;;;;;;;;;5105728;27;20118;-69
2022/04/28 00:18:09;;;;;;;7.97;3.00;;;;;;;;;;5105768;27;20047;-70
2022/04/28 00:20:35;;;;;;;7.93;2.88;;;;;;;;;;5115068;27;20615;-69
2022/04/28 00:23:01;;;;;;;6.95;2.55;;;;;;;;;;5106083;27;20058;-69
2022/04/28 00:25:27;;;;;;;6.97;2.50;;;;;;;;;;5068248;28;20043;-70
2022/04/28 00:27:54;;;;;;;7.25;2.53;;;;;;;;;;5068019;28;20047;-70
2022/04/28 00:30:20;;;;;;;6.65;2.28;;;;;;;;;;5085336;28;20121;-70
2022/04/28 00:32:46;;;;;;;6.88;2.63;;;;;;;;;;5084578;28;20119;-69
2022/04/28 00:35:12;;;;;;;6.07;2.53;;;;;;;;;;5084799;28;20039;-69
2022/04/28 00:37:38;;;;;;;6.13;2.40;;;;;;;;;;5084908;28;20103;-70
2022/04/28 00:40:05;;;;;;;5.85;2.20;;;;;;;;;;5067268;28;20764;-70
2022/04/28 00:42:31;;;;;;;6.30;2.22;;;;;;;;;;5084165;28;20121;-70
2022/04/28 00:44:57;;;;;;;6.38;2.25;;;;;;;;;;5120777;27;20658;-69
2022/04/28 00:50:38;;;;;;;6.05;2.22;;;;;;;;;;5121982;27;20074;-70
2022/04/28 00:52:55;;;;;;;5.72;2.17;;;;;;;;;;5122035;27;20055;-69
2022/04/28 00:55:21;;;;;;;5.13;2.05;;;;;;;;;;5123768;27;20487;-70
2022/04/28 00:57:47;;;;;;;6.20;2.45;;;;;;;;;;5121531;27;20043;-69
2022/04/28 01:00:14;;;;;;;5.97;2.33;;;;;;;;;;5123331;27;20049;-70
2022/04/28 01:02:40;;;;;;;6.20;2.35;;;;;;;;;;5122433;27;20472;-69
2022/04/28 01:05:06;;;;;;;5.50;2.47;;;;;;;;;;5104507;27;20141;-69
2022/04/28 01:07:32;;;;;;;5.90;2.38;;;;;;;;;;5122119;27;20597;-70
2022/04/28 01:09:58;;;;;;;5.03;2.00;;;;;;;;;;5122593;27;20126;-69
2022/04/28 01:12:24;;;;;;;5.93;2.08;;;;;;;;;;5105049;27;20047;-69
2022/04/28 01:14:50;;;;;;;5.97;2.15;;;;;;;;;;5122381;27;20047;-70
2022/04/28 01:17:16;;;;;;;6.55;2.53;;;;;;;;;;5122290;27;20049;-70
2022/04/28 01:19:42;;;;;;;6.63;2.15;;;;;;;;;;5122135;27;20043;-69
2022/04/28 01:22:09;;;;;;;8.07;2.38;;;;;;;;;;5121878;27;20096;-69
2022/04/28 01:24:36;;;;;;;5.72;2.00;;;;;;;;;;5121736;27;20122;-69
2022/04/28 01:27:02;;;;;;;6.07;2.00;;;;;;;;;;5104447;27;20058;-69
2022/04/28 01:29:28;;;;;;;7.05;2.13;;;;;;;;;;5104499;27;20075;-69
2022/04/28 01:31:54;;;;;;;5.68;2.20;;;;;;;;;;5104882;27;20056;-70
2022/04/28 01:34:20;;;;;;;5.78;2.00;;;;;;;;;;5121579;27;20120;-69
2022/04/28 01:36:46;;;;;;;4.88;1.88;;;;;;;;;;5121283;27;20693;-69
2022/04/28 01:39:12;;;;;;;6.10;1.92;;;;;;;;;;5121208;27;20174;-70
2022/04/28 01:41:38;;;;;;;5.78;1.88;;;;;;;;;;5104312;27;20054;-69
2022/04/28 01:44:04;;;;;;;7.47;2.30;;;;;;;;;;5104168;27;20120;-70
2022/04/28 01:46:30;;;;;;;5.88;2.10;;;;;;;;;;5121305;27;20109;-69
2022/04/28 01:48:56;;;;;;;6.05;2.00;;;;;;;;;;5121583;27;20087;-70
2022/04/28 01:56:51;;;;;;;6.22;1.80;;;;;;;;;;5120995;28;20134;-69
2022/04/28 01:59:17;;;;;;;5.60;1.95;;;;;;;;;;5121593;28;20131;-70
2022/04/28 02:01:43;;;;;;;5.60;2.00;;;;;;;;;;5104559;28;20079;-69
2022/04/28 02:04:09;;;;;;;5.55;2.28;;;;;;;;;;5086968;28;20551;-69
2022/04/28 02:06:35;;;;;;;5.00;1.70;;;;;;;;;;5104314;28;20047;-70
2022/04/28 02:09:01;;;;;;;6.28;2.20;;;;;;;;;;5104122;28;20077;-68
2022/04/28 02:11:27;;;;;;;5.53;1.85;;;;;;;;;;5076186;28;20039;-68
2022/04/28 02:13:53;;;;;;;5.00;2.00;;;;;;;;;;5080923;28;20093;-68
2022/04/28 02:16:19;;;;;;;5.35;1.98;;;;;;;;;;5083917;28;20068;-68
2022/04/28 02:18:45;;;;;;;6.60;1.90;;;;;;;;;;5083563;28;20127;-68
2022/04/28 02:21:11;;;;;;;5.03;1.65;;;;;;;;;;5083615;28;20088;-69
2022/04/28 02:23:37;;;;;;;5.38;1.90;;;;;;;;;;5083823;28;20702;-68
2022/04/28 02:26:03;;;;;;;5.68;1.98;;;;;;;;;;5083638;28;20089;-69
2022/04/28 02:28:29;;;;;;;6.63;2.28;;;;;;;;;;5083748;28;20071;-68
2022/04/28 02:30:55;;;;;;;5.10;1.80;;;;;;;;;;5083766;28;20129;-68
2022/04/28 02:33:21;;;;;;;5.70;1.92;;;;;;;;;;5083689;28;20059;-69
2022/04/28 02:35:47;;;;;;;5.15;1.73;;;;;;;;;;5067556;28;20036;-68
2022/04/28 02:38:13;;;;;;;5.75;1.80;;;;;;;;;;5087556;28;20040;-69
2022/04/28 02:40:39;;;;;;;4.97;1.75;;;;;;;;;;5070753;28;20136;-69
2022/04/28 02:43:05;;;;;;;6.55;1.90;;;;;;;;;;5087582;28;20048;-68
2022/04/28 02:45:31;;;;;;;6.47;1.75;;;;;;;;;;5087670;28;20090;-68
2022/04/28 02:47:57;;;;;;;5.72;1.80;;;;;;;;;;5070464;28;20794;-68
2022/04/28 02:50:23;;;;;;;5.78;1.67;;;;;;;;;;5087485;28;20078;-69
2022/04/28 02:52:52;;;;;;;7.05;1.85;;;;;;;;;;5086940;28;20515;-69
2022/04/28 02:55:20;;;;;;;6.40;1.75;;;;;;;;;;5086998;28;20046;-69
2022/04/28 02:57:46;;;;;;;5.25;1.80;;;;;;;;;;5087615;28;20122;-69
2022/04/28 03:00:12;;;;;;;4.93;1.75;;;;;;;;;;5070191;28;20043;-69
2022/04/28 03:02:38;;;;;;;5.43;1.77;;;;;;;;;;5070268;28;20046;-69
2022/04/28 03:05:04;;;;;;;7.32;1.90;;;;;;;;;;5069769;28;20050;-69
2022/04/28 03:13:00;;;;;;;5.22;1.77;;;;;;;;;;5086214;28;20047;-69
2022/04/28 03:15:26;;;;;;;5.68;1.73;;;;;;;;;;5086816;28;20520;-70
2022/04/28 03:17:52;;;;;;;5.13;1.77;;;;;;;;;;5087283;28;20516;-69
2022/04/28 03:20:18;;;;;;;6.15;2.00;;;;;;;;;;5086451;28;20051;-69
2022/04/28 03:22:45;;;;;;;5.20;1.42;;;;;;;;;;5086782;28;20099;-69
2022/04/28 03:25:11;;;;;;;4.07;1.60;;;;;;;;;;5086397;28;20130;-69
2022/04/28 03:27:37;;;;;;;4.78;1.45;;;;;;;;;;5086464;28;20692;-69
2022/04/28 03:30:04;;;;;;;4.70;1.50;;;;;;;;;;5066302;28;20052;-69
2022/04/28 03:32:30;;;;;;;5.75;1.85;;;;;;;;;;5083169;28;20075;-69
2022/04/28 03:34:56;;;;;;;4.65;1.67;;;;;;;;;;5082773;28;20082;-68
2022/04/28 03:37:22;;;;;;;4.43;1.55;;;;;;;;;;5082784;28;20046;-68
2022/04/28 03:39:48;;;;;;;4.57;1.50;;;;;;;;;;5083339;28;20396;-69
2022/04/28 03:42:14;;;;;;;5.00;1.52;;;;;;;;;;5082774;28;20047;-69
2022/04/28 03:44:40;;;;;;;4.75;1.75;;;;;;;;;;5083229;28;20044;-69
2022/04/28 03:47:06;;;;;;;6.18;1.40;;;;;;;;;;5081606;28;20137;-69
2022/04/28 03:49:32;;;;;;;4.75;1.38;;;;;;;;;;5082243;28;20365;-69
2022/04/28 03:51:58;;;;;;;5.63;1.73;;;;;;;;;;5082455;28;20047;-69
2022/04/28 03:54:24;;;;;;;5.40;1.60;;;;;;;;;;5082002;28;20117;-69
2022/04/28 03:56:50;;;;;;;6.13;1.85;;;;;;;;;;5066000;28;20039;-69
2022/04/28 03:59:16;;;;;;;5.32;1.58;;;;;;;;;;5082402;28;20044;-68
2022/04/28 04:01:42;;;;;;;5.53;1.73;;;;;;;;;;5082105;28;20547;-68
2022/04/28 04:04:08;;;;;;;4.88;2.05;;;;;;;;;;5081998;28;20040;-69
2022/04/28 04:06:34;;;;;;;5.80;1.45;;;;;;;;;;5081893;28;20051;-69
2022/04/28 04:09:00;;;;;;;4.47;1.42;;;;;;;;;;5081718;28;20116;-69
2022/04/28 04:11:26;;;;;;;4.55;1.40;;;;;;;;;;5082290;28;20044;-69
2022/04/28 04:13:52;;;;;;;3.70;1.35;;;;;;;;;;5082350;28;20044;-69
2022/04/28 04:16:18;;;;;;;5.20;1.70;;;;;;;;;;5082129;28;20036;-69
2022/04/28 04:18:44;;;;;;;6.50;1.58;;;;;;;;;;5082279;28;20089;-70
2022/04/28 04:21:10;;;;;;;4.00;1.42;;;;;;;;;;5096058;28;20046;-69
2022/04/28 04:23:36;;;;;;;6.38;1.60;;;;;;;;;;5102642;28;20127;-70
2022/04/28 04:26:02;;;;;;;4.15;1.33;;;;;;;;;;5103350;28;20043;-70
2022/04/28 04:28:28;;;;;;;3.47;1.27;;;;;;;;;;5102087;28;20599;-69
2022/04/28 04:33:39;;;;;;;;;;;;;;;;;;5102687;28;20036;-69
2022/04/28 04:36:05;;;;;;;4.88;1.30;;;;;;;;;;5084484;28;19951;-70
2022/04/28 04:38:31;;;;;;;5.63;1.70;;;;;;;;;;5093997;28;20679;-69
2022/04/28 04:40:57;;;;;;;5.50;1.30;;;;;;;;;;5081734;28;20671;-69
2022/04/28 04:43:23;;;;;;;6.18;1.60;;;;;;;;;;5081628;28;20036;-69
2022/04/28 04:45:49;;;;;;;4.78;1.30;;;;;;;;;;5081474;28;20078;-69
2022/04/28 04:48:15;;;;;;;3.67;1.30;;;;;;;;;;5081376;28;20127;-70
2022/04/28 04:50:41;;;;;;;3.80;1.33;;;;;;;;;;5081333;28;20646;-69
2022/04/28 04:53:07;;;;;;;4.10;1.25;;;;;;;;;;5081368;28;20062;-69
2022/04/28 04:55:34;;;;;;;4.03;1.30;;;;;;;;;;5081109;28;20040;-69
2022/04/28 04:58:00;;;;;;;3.90;1.40;;;;;;;;;;5079929;28;20044;-69
2022/04/28 05:00:26;;;;;;;6.03;1.75;;;;;;;;;;5080455;28;20036;-69
2022/04/28 05:02:52;;;;;;;5.70;1.50;;;;;;;;;;5082193;28;20097;-69
2022/04/28 05:05:18;;;;;;;4.32;1.95;;;;;;;;;;5088916;28;20036;-69
2022/04/28 05:07:44;;;;;;;4.28;1.20;;;;;;;;;;5101094;28;20047;-70
2022/04/28 05:10:10;;;;;;;3.10;1.23;;;;;;;;;;5102571;28;20050;-69
2022/04/28 05:12:36;;;;;;;4.40;1.20;;;;;;;;;;5101320;28;20047;-69
2022/04/28 05:15:02;;;;;;;5.65;1.65;;;;;;;;;;5080929;28;20080;-69
2022/04/28 05:17:28;;;;;;;4.80;1.45;;;;;;;;;;5071447;28;20079;-69
2022/04/28 05:19:58;;;;;;;3.30;1.30;;;;;;;;;;5098663;28;20613;-69
2022/04/28 05:22:24;;;;;;;4.18;1.45;;;;;;;;;;5083972;28;20048;-70
2022/04/28 05:24:50;;;;;;;5.35;1.27;;;;;;;;;;5100774;28;20637;-69
2022/04/28 05:27:16;;;;;;;5.78;1.40;;;;;;;;;;5084874;28;20080;-69
2022/04/28 05:29:43;;;;;;;4.47;1.38;;;;;;;;;;5074858;27;20078;-68
2022/04/28 05:32:09;;;;;;;5.75;1.67;;;;;;;;;;5074758;27;20062;-70
2022/04/28 05:34:35;;;;;;;5.28;1.52;;;;;;;;;;5078338;27;20220;-70
2022/04/28 05:37:01;;;;;;;5.03;1.38;;;;;;;;;;5081638;28;20224;-70
2022/04/28 05:39:28;;;;;;;5.15;1.35;;;;;;;;;;5099787;28;20088;-70
2022/04/28 05:41:54;;;;;;;6.22;1.63;;;;;;;;;;5080739;28;20143;-70
2022/04/28 05:47:05;;;;;;;;;;;;;;;;;;5097664;28;20377;-69
2022/04/28 05:49:31;;;;;;;4.38;1.50;;;;;;;;;;5101827;27;19992;-71
2022/04/28 05:51:57;;;;;;;8.13;2.30;;;;;;;;;;5101226;28;20051;-70
2022/04/28 05:54:23;;;;;;;10.55;2.70;;;;;;;;;;5102159;27;20039;-70
2022/04/28 05:56:49;;;;;;;15.80;2.97;;;;;;;;;;5101311;28;20042;-70
2022/04/28 05:59:16;;;;;;;12.20;2.65;;;;;;;;;;5083610;28;20267;-70
2022/04/28 06:01:42;;;;;;;17.23;3.22;;;;;;;;;;5077527;28;20039;-70
2022/04/28 06:04:08;;;;;;;18.02;2.85;;;;;;;;;;5102064;28;20081;-70
2022/04/28 06:06:35;;;;;;;11.80;3.42;;;;;;;;;;5103524;28;20492;-70
2022/04/28 06:09:01;;;;;;;13.80;2.72;;;;;;;;;;5103379;28;20048;-70
2022/04/28 06:11:27;;;;;;;14.77;3.05;;;;;;;;;;5105343;27;20043;-70
2022/04/28 06:13:53;;;;;;;8.00;2.03;;;;;;;;;;5089080;27;20459;-70
2022/04/28 06:16:19;;;;;;;11.30;2.47;;;;;;;;;;5105516;27;20043;-71
2022/04/28 06:18:45;;;;;;;9.35;2.35;;;;;;;;;;5105347;27;20647;-71
2022/04/28 06:21:11;;;;;;;8.73;2.30;;;;;;;;;;5105761;27;20122;-70
2022/04/28 06:23:37;;;;;;;8.48;2.00;;;;;;;;;;5088702;27;20278;-70
2022/04/28 06:26:03;;;;;;;8.95;2.20;;;;;;;;;;5105270;27;20462;-70
2022/04/28 06:28:29;;;;;;;9.98;2.05;;;;;;;;;;5105558;27;20067;-71
2022/04/28 06:30:55;;;;;;;11.10;2.20;;;;;;;;;;5088175;27;20127;-70
2022/04/28 06:33:21;;;;;;;9.40;2.00;;;;;;;;;;5105360;27;20612;-70
2022/04/28 06:35:47;;;;;;;9.70;2.28;;;;;;;;;;5105557;27;20039;-70
2022/04/28 06:38:13;;;;;;;9.48;2.35;;;;;;;;;;5088256;27;20078;-71
2022/04/28 06:40:39;;;;;;;8.45;2.00;;;;;;;;;;5105045;27;20070;-70
2022/04/28 06:43:05;;;;;;;8.52;2.42;;;;;;;;;;5104758;27;20377;-71
2022/04/28 06:45:31;;;;;;;9.90;1.80;;;;;;;;;;5093168;28;20104;-71
2022/04/28 06:47:57;;;;;;;7.20;2.17;;;;;;;;;;5084826;28;20043;-70
2022/04/28 06:50:23;;;;;;;7.78;1.90;;;;;;;;;;5084336;28;20401;-71
2022/04/28 06:52:49;;;;;;;9.10;1.90;;;;;;;;;;5084786;28;20036;-71
2022/04/28 06:55:15;;;;;;;8.90;2.00;;;;;;;;;;5084735;28;20034;-70
2022/04/28 06:57:41;;;;;;;6.63;1.75;;;;;;;;;;5084618;28;20120;-71
2022/04/28 07:00:08;;;;;;;7.63;2.08;;;;;;;;;;5084392;28;20112;-70
2022/04/28 07:02:34;;;;;;;6.53;1.83;;;;;;;;;;5084387;28;20328;-70
2022/04/28 07:05:00;;;;;;;5.72;1.80;;;;;;;;;;5084319;28;20044;-70
2022/04/28 07:07:26;;;;;;;6.85;1.70;;;;;;;;;;5083601;28;20123;-70
2022/04/28 07:09:53;;;;;;;5.88;1.63;;;;;;;;;;5084589;28;20061;-70
2022/04/28 07:12:19;;;;;;;8.00;2.22;;;;;;;;;;5066399;28;20245;-70
2022/04/28 07:14:45;;;;;;;5.55;1.42;;;;;;;;;;5084334;28;20394;-71
2022/04/28 07:17:11;;;;;;;7.22;1.90;;;;;;;;;;5067508;28;20039;-71
2022/04/28 07:19:37;;;;;;;5.82;1.42;;;;;;;;;;5083530;28;20039;-70
2022/04/28 07:22:05;;;;;;;6.68;1.55;;;;;;;;;;5066918;28;20059;-71
2022/04/28 07:24:35;;;;;;;5.00;1.27;;;;;;;;;;5067027;28;20148;-70
2022/04/28 07:27:02;;;;;;;6.80;1.85;;;;;;;;;;5084114;28;20082;-70
2022/04/28 07:29:28;;;;;;;4.75;1.35;;;;;;;;;;5084014;28;20390;-71
2022/04/28 07:31:54;;;;;;;8.20;1.73;;;;;;;;;;5083660;28;20314;-71
2022/04/28 07:34:20;;;;;;;6.00;1.38;;;;;;;;;;5102612;27;20092;-70
2022/04/28 07:36:46;;;;;;;3.63;1.20;;;;;;;;;;5104121;27;20042;-70
2022/04/28 07:39:12;;;;;;;5.20;1.48;;;;;;;;;;5104547;27;20039;-70
2022/04/28 07:41:38;;;;;;;5.40;1.60;;;;;;;;;;5104554;27;20062;-71
2022/04/28 07:44:04;;;;;;;7.05;1.65;;;;;;;;;;5104177;27;20488;-71
2022/04/28 07:46:30;;;;;;;6.15;1.48;;;;;;;;;;5087609;27;20130;-70
2022/04/28 07:48:56;;;;;;;5.38;1.60;;;;;;;;;;5103940;27;20184;-71
2022/04/28 07:51:23;;;;;;;4.95;1.42;;;;;;;;;;5103614;27;20164;-70
2022/04/28 07:53:48;;;;;;;6.50;1.48;;;;;;;;;;5086683;27;20088;-70
2022/04/28 07:56:15;;;;;;;7.13;1.55;;;;;;;;;;5086636;27;20347;-70
2022/04/28 07:58:42;;;;;;;5.75;1.33;;;;;;;;;;5103799;27;20065;-70
2022/04/28 08:01:09;;;;;;;5.60;1.20;;;;;;;;;;5093654;28;20047;-70
2022/04/28 08:03:35;;;;;;;5.25;1.33;;;;;;;;;;5083672;28;20040;-71
2022/04/28 08:06:01;;;;;;;3.65;1.00;;;;;;;;;;5101551;28;20289;-70
2022/04/28 08:08:27;;;;;;;5.05;1.58;;;;;;;;;;5083109;28;20138;-71
2022/04/28 08:10:53;;;;;;;6.65;1.65;;;;;;;;;;5083547;28;20047;-70
2022/04/28 08:13:20;;;;;;;4.00;1.20;;;;;;;;;;5082992;28;20404;-71
2022/04/28 08:15:46;;;;;;;6.35;1.48;;;;;;;;;;5082878;28;20455;-71
2022/04/28 08:18:12;;;;;;;5.10;1.48;;;;;;;;;;5082778;28;20252;-70
2022/04/28 08:20:41;;;;;;;5.97;1.70;;;;;;;;;;5066389;28;20044;-70
2022/04/28 08:23:07;;;;;;;6.88;1.42;;;;;;;;;;5082588;28;20078;-70
2022/04/28 08:25:33;;;;;;;5.35;1.33;;;;;;;;;;5082758;28;20420;-70
2022/04/28 08:27:59;;;;;;;5.57;1.55;;;;;;;;;;5081745;28;20247;-71
2022/04/28 08:30:26;;;;;;;5.28;1.30;;;;;;;;;;5082433;28;20454;-70
2022/04/28 08:32:52;;;;;;;6.18;1.42;;;;;;;;;;5082214;28;20303;-71
2022/04/28 08:35:18;;;;;;;6.18;1.58;;;;;;;;;;5081601;28;20488;-70
2022/04/28 08:37:44;;;;;;;6.10;1.48;;;;;;;;;;5065133;28;20248;-71
2022/04/28 08:40:11;;;;;;;5.32;1.33;;;;;;;;;;5082112;28;20045;-70
2022/04/28 08:42:37;;;;;;;6.07;1.20;;;;;;;;;;5082569;28;20472;-71
2022/04/28 08:45:04;;;;;;;5.20;1.50;;;;;;;;;;5082369;28;20043;-71
2022/04/28 08:47:30;;;;;;;4.32;1.17;;;;;;;;;;5082634;28;20558;-71
2022/04/28 08:49:56;;;;;;;4.90;1.30;;;;;;;;;;5065904;28;20040;-71
2022/04/28 08:52:22;;;;;;;4.72;1.23;;;;;;;;;;5065305;28;20049;-71
2022/04/28 08:54:47;;;;;;;3.38;1.02;;;;;;;;;;5081866;28;20736;-70
2022/04/28 08:57:14;;;;;;;5.72;1.48;;;;;;;;;;5082031;28;20135;-71
2022/04/28 08:59:40;;;;;;;6.00;1.25;;;;;;;;;;5082597;28;20123;-71
2022/04/28 09:02:08;;;;;;;3.63;1.20;;;;;;;;;;5081854;28;20059;-68
2022/04/28 09:04:34;;;;;;;5.32;1.40;;;;;;;;;;5065055;28;20400;-69
2022/04/28 09:07:00;;;;;;;5.38;1.30;;;;;;;;;;5081874;28;20039;-69
2022/04/28 09:09:28;;;;;;;4.05;1.30;;;;;;;;;;5082162;28;20055;-69
2022/04/28 09:11:57;;;;;;;5.25;1.27;;;;;;;;;;5081883;28;20071;-69
2022/04/28 09:14:23;;;;;;;4.90;1.10;;;;;;;;;;5081970;28;20126;-69
2022/04/28 09:16:52;;;;;;;4.45;1.40;;;;;;;;;;5081756;28;20055;-69
2022/04/28 09:19:21;;;;;;;5.18;1.27;;;;;;;;;;5081575;28;20485;-69
2022/04/28 09:21:47;;;;;;;6.30;1.38;;;;;;;;;;5081756;28;20043;-69
2022/04/28 09:24:14;;;;;;;4.82;1.27;;;;;;;;;;5081645;28;20044;-69
2022/04/28 09:26:41;;;;;;;4.93;1.30;;;;;;;;;;5080994;28;20043;-69
2022/04/28 09:29:10;;;;;;;5.45;1.33;;;;;;;;;;5082199;28;20047;-70
2022/04/28 09:31:37;;;;;;;5.05;1.33;;;;;;;;;;5082590;28;20277;-70
2022/04/28 09:34:10;;;;;;;5.57;1.42;;;;;;;;;;5082101;28;20067;-71
2022/04/28 09:36:37;;;;;;;5.50;1.33;;;;;;;;;;5064628;28;20070;-71
2022/04/28 09:39:04;;;;;;;4.47;1.40;;;;;;;;;;5080676;28;20316;-71
2022/04/28 09:44:16;;;;;;;4.88;1.23;;;;;;;;;;5081044;28;20059;-71
2022/04/28 09:46:43;;;;;;;5.25;1.30;;;;;;;;;;5081156;28;20098;-70
2022/04/28 09:49:10;;;;;;;6.55;1.38;;;;;;;;;;5081485;28;20048;-71
2022/04/28 09:51:40;;;;;;;5.75;1.27;;;;;;;;;;5081021;28;20046;-71
2022/04/28 09:54:08;;;;;;;4.38;1.25;;;;;;;;;;5081582;28;20043;-70
2022/04/28 09:56:34;;;;;;;5.55;1.60;;;;;;;;;;5064925;28;20456;-71
2022/04/28 09:59:01;;;;;;;4.50;1.35;;;;;;;;;;5100025;28;20104;-70
2022/04/28 10:01:30;;;;;;;4.28;1.42;;;;;;;;;;5081658;28;20075;-70
2022/04/28 10:03:57;;;;;;;5.60;1.55;;;;;;;;;;5081702;28;20433;-69
2022/04/28 10:06:24;;;;;;;5.72;1.33;;;;;;;;;;5081181;28;20049;-70
2022/04/28 10:08:51;;;;;;;4.72;1.20;;;;;;;;;;5081184;28;20043;-70
2022/04/28 10:11:20;;;;;;;4.28;1.23;;;;;;;;;;5080912;28;20130;-69
2022/04/28 10:13:50;;;;;;;5.97;1.40;;;;;;;;;;5080885;28;20036;-70
2022/04/28 10:16:17;;;;;;;3.65;1.20;;;;;;;;;;5064317;28;20043;-69
2022/04/28 10:18:49;;;;;;;5.00;1.38;;;;;;;;;;5081102;28;20477;-69
2022/04/28 10:21:16;;;;;;;5.22;1.40;;;;;;;;;;5081212;28;20373;-69
2022/04/28 10:35:06;;;;;;;6.20;1.40;;;;;;;;;;5080429;28;19915;-69
2022/04/28 10:37:33;;;;;;;3.60;1.15;;;;;;;;;;5097580;28;20374;-69
2022/04/28 10:39:59;;;;;;;6.15;1.40;;;;;;;;;;5098043;28;20604;-69
2022/04/28 10:42:28;;;;;;;4.20;1.40;;;;;;;;;;5097623;28;20401;-69
2022/04/28 10:44:55;;;;;;;3.88;1.15;;;;;;;;;;5097921;28;20401;-69
2022/04/28 10:47:22;;;;;;;4.63;1.40;;;;;;;;;;5097592;28;20044;-69
2022/04/28 10:49:52;;;;;;;4.93;1.23;;;;;;;;;;5097326;28;20199;-69
2022/04/28 10:52:25;;;;;;;4.53;1.27;;;;;;;;;;5097950;28;20055;-69
2022/04/28 10:54:53;;;;;;;4.68;1.38;;;;;;;;;;5097365;28;20043;-70
2022/04/28 10:57:27;;;;;;;5.20;1.50;;;;;;;;;;5099688;28;20047;-69
2022/04/28 10:59:54;;;;;;;5.15;1.42;;;;;;;;;;5101386;28;20295;-69
2022/04/28 11:02:19;;;;;;;3.78;1.27;;;;;;;;;;5101276;28;20286;-69
2022/04/28 11:04:52;;;;;;;4.32;1.38;;;;;;;;;;5101404;28;20132;-70
2022/04/28 11:07:20;;;;;;;3.85;1.17;;;;;;;;;;5100854;28;20302;-69
2022/04/28 11:09:55;;;;;;;4.97;1.38;;;;;;;;;;5067643;28;20367;-69
2022/04/28 11:12:21;;;;;;;4.63;1.27;;;;;;;;;;5067252;28;20096;-69
2022/04/28 11:14:52;;;;;;;5.18;1.40;;;;;;;;;;5067192;28;20042;-69
2022/04/28 11:17:21;;;;;;;4.95;1.40;;;;;;;;;;5101559;28;20522;-69
2022/04/28 11:19:47;;;;;;;4.65;1.30;;;;;;;;;;5101054;28;20562;-70
2022/04/28 11:22:14;;;;;;;3.95;1.05;;;;;;;;;;5101062;28;20284;-68
2022/04/28 11:24:43;;;;;;;4.43;1.30;;;;;;;;;;5066956;28;20055;-69
2022/04/28 11:27:15;;;;;;;3.70;1.10;;;;;;;;;;5086504;28;20049;-69
2022/04/28 11:29:42;;;;;;;4.65;1.42;;;;;;;;;;5105982;27;20063;-70
2022/04/28 11:32:11;;;;;;;3.95;1.10;;;;;;;;;;5121583;27;20055;-69
2022/04/28 11:34:37;;;;;;;4.53;1.13;;;;;;;;;;5120106;27;20230;-69
2022/04/28 11:37:17;;;;;;;5.72;1.40;;;;;;;;;;5121182;27;20039;-69
2022/04/28 11:39:47;;;;;;;5.43;1.30;;;;;;;;;;5122749;27;20226;-70
2022/04/28 11:42:16;;;;;;;4.43;1.50;;;;;;;;;;5121174;27;20965;-70
2022/04/28 11:44:46;;;;;;;4.70;1.23;;;;;;;;;;5121135;27;20435;-70
2022/04/28 11:47:12;;;;;;;3.95;1.10;;;;;;;;;;5120785;27;20134;-70
2022/04/28 11:49:41;;;;;;;4.00;1.13;;;;;;;;;;5121056;27;20039;-70
2022/04/28 11:52:20;;;;;;;3.97;1.20;;;;;;;;;;5121005;27;20100;-70
2022/04/28 11:54:51;;;;;;;4.38;1.30;;;;;;;;;;5120433;27;20041;-70
2022/04/28 11:57:17;;;;;;;4.43;1.20;;;;;;;;;;5112702;27;20042;-70
2022/04/28 11:59:44;;;;;;;5.25;1.45;;;;;;;;;;5103423;27;20031;-70
2022/04/28 12:02:24;;;;;;;4.28;1.40;;;;;;;;;;5103949;27;20392;-70
2022/04/28 12:04:49;;;;;;;6.65;1.40;;;;;;;;;;5103682;27;20050;-70
2022/04/28 12:07:20;;;;;;;4.22;1.17;;;;;;;;;;5121866;27;20043;-70
2022/04/28 12:15:15;;;;;;;5.15;1.27;;;;;;;;;;5082885;28;20121;-70
2022/04/28 12:20:58;;;;;;;3.88;1.23;;;;;;;;;;5083120;28;20496;-70
2022/04/28 12:23:28;;;;;;;3.60;1.08;;;;;;;;;;5066630;28;20050;-70
2022/04/28 12:25:58;;;;;;;3.72;1.17;;;;;;;;;;5083211;28;20475;-70
2022/04/28 12:28:29;;;;;;;4.10;1.40;;;;;;;;;;5065910;28;20038;-70
2022/04/28 12:30:55;;;;;;;4.50;1.17;;;;;;;;;;5066098;28;20052;-70
2022/04/28 12:33:22;;;;;;;4.45;1.30;;;;;;;;;;5082982;28;20484;-70
2022/04/28 12:35:48;;;;;;;4.72;1.20;;;;;;;;;;5084478;27;20043;-70
2022/04/28 12:38:24;;;;;;;3.25;1.10;;;;;;;;;;5102708;27;20065;-70
2022/04/28 12:40:50;;;;;;;6.22;1.38;;;;;;;;;;5102109;27;20046;-70
2022/04/28 12:43:36;;;;;;;5.25;1.40;;;;;;;;;;5087329;28;20067;-70
2022/04/28 12:46:03;;;;;;;4.07;1.27;;;;;;;;;;5082238;28;20151;-70
2022/04/28 12:48:33;;;;;;;4.63;1.20;;;;;;;;;;5065184;28;20372;-70
2022/04/28 12:51:22;;;;;;;8.18;1.42;;;;;;;;;;5082560;28;20102;-70
2022/04/28 12:53:49;;;;;;;5.15;1.40;;;;;;;;;;5082499;28;20039;-70
2022/04/28 12:56:16;;;;;;;4.57;1.15;;;;;;;;;;5082445;28;20112;-70
2022/04/28 12:58:47;;;;;;;3.90;1.33;;;;;;;;;;5082174;28;20047;-70
2022/04/28 13:01:14;;;;;;;4.65;1.20;;;;;;;;;;5081848;28;20071;-70
2022/04/28 13:03:41;;;;;;;5.75;1.40;;;;;;;;;;5065575;28;20066;-70
2022/04/28 13:06:08;;;;;;;5.38;1.30;;;;;;;;;;5082169;28;20077;-70
2022/04/28 13:08:34;;;;;;;4.78;1.10;;;;;;;;;;5081880;28;20101;-70
2022/04/28 13:11:01;;;;;;;5.68;1.55;;;;;;;;;;5082245;28;20463;-70
2022/04/28 13:13:27;;;;;;;4.22;1.50;;;;;;;;;;5081752;28;20291;-70
2022/04/28 13:15:53;;;;;;;2.60;1.10;;;;;;;;;;5082099;28;20036;-71
2022/04/28 13:18:19;;;;;;;5.60;1.50;;;;;;;;;;5082118;28;20526;-70
2022/04/28 13:20:45;;;;;;;5.65;1.60;;;;;;;;;;5081687;28;20046;-70
2022/04/28 13:23:11;;;;;;;5.22;1.30;;;;;;;;;;5065195;28;20304;-70
2022/04/28 13:25:38;;;;;;;5.95;1.38;;;;;;;;;;5081888;28;20456;-70
2022/04/28 13:28:04;;;;;;;3.55;1.23;;;;;;;;;;5081911;28;20044;-70
2022/04/28 13:30:30;;;;;;;5.32;1.50;;;;;;;;;;5064336;28;20055;-70
2022/04/28 13:32:56;;;;;;;4.95;1.20;;;;;;;;;;5065364;28;20039;-71
2022/04/28 13:35:22;;;;;;;5.03;1.40;;;;;;;;;;5081708;28;20528;-70
2022/04/28 13:37:48;;;;;;;5.32;1.33;;;;;;;;;;5081374;28;20188;-70
2022/04/28 13:40:13;;;;;;;5.75;1.40;;;;;;;;;;5081696;28;20447;-70
2022/04/28 13:42:39;;;;;;;5.72;1.50;;;;;;;;;;5081059;28;20122;-70
2022/04/28 13:45:05;;;;;;;3.95;1.40;;;;;;;;;;5064545;28;20054;-71
2022/04/28 13:47:31;;;;;;;5.45;1.30;;;;;;;;;;5082164;28;20044;-70
2022/04/28 13:49:57;;;;;;;4.60;1.50;;;;;;;;;;5080829;28;20235;-70
2022/04/28 13:52:23;;;;;;;6.13;1.65;;;;;;;;;;5081348;28;20035;-70
2022/04/28 13:54:49;;;;;;;4.22;1.27;;;;;;;;;;5087269;28;20091;-70
2022/04/28 13:57:15;;;;;;;4.75;1.20;;;;;;;;;;5101633;27;20047;-70
2022/04/28 13:59:41;;;;;;;4.72;1.30;;;;;;;;;;5101755;28;20130;-70
2022/04/28 14:02:08;;;;;;;5.60;1.50;;;;;;;;;;5101887;28;20130;-70
2022/04/28 14:04:33;;;;;;;4.72;1.50;;;;;;;;;;5101698;28;20092;-70
2022/04/28 14:06:59;;;;;;;4.80;1.40;;;;;;;;;;5101139;28;20514;-70
2022/04/28 14:09:27;;;;;;;6.25;1.90;;;;;;;;;;5084190;28;20372;-71
2022/04/28 14:11:55;;;;;;;4.15;1.23;;;;;;;;;;5101249;28;20043;-70
2022/04/28 14:14:21;;;;;;;4.32;1.30;;;;;;;;;;5084387;28;20043;-71
2022/04/28 14:16:48;;;;;;;4.50;1.50;;;;;;;;;;5101594;28;20054;-70
2022/04/28 14:19:14;;;;;;;5.30;1.20;;;;;;;;;;5084396;28;20175;-70
2022/04/28 14:21:42;;;;;;;3.78;1.30;;;;;;;;;;5084479;28;20087;-71
2022/04/28 14:24:08;;;;;;;5.25;1.42;;;;;;;;;;5084751;28;20062;-70
2022/04/28 14:26:35;;;;;;;3.88;1.20;;;;;;;;;;5101202;28;20281;-70
2022/04/28 14:29:01;;;;;;;4.43;1.17;;;;;;;;;;5101251;28;20059;-70
2022/04/28 14:31:28;;;;;;;6.03;1.48;;;;;;;;;;5084588;27;20200;-70
2022/04/28 14:33:54;;;;;;;3.55;1.13;;;;;;;;;;5105701;27;20043;-70
2022/04/28 14:36:20;;;;;;;4.25;1.30;;;;;;;;;;5081281;28;20039;-70
2022/04/28 14:38:46;;;;;;;5.63;1.20;;;;;;;;;;5068505;28;20421;-70
2022/04/28 14:41:12;;;;;;;5.00;1.30;;;;;;;;;;5085265;28;20043;-70
2022/04/28 14:43:38;;;;;;;3.92;1.20;;;;;;;;;;5084905;28;20389;-70
2022/04/28 14:46:04;;;;;;;4.82;1.50;;;;;;;;;;5068035;28;20043;-70
2022/04/28 14:52:19;;;;;;;4.95;1.38;;;;;;;;;;5067703;28;20047;-71
2022/04/28 14:54:01;;;;;;;7.32;1.40;;;;;;;;;;5084783;28;20190;-71
2022/04/28 14:56:27;;;;;;;5.13;1.25;;;;;;;;;;5084103;28;20342;-71
2022/04/28 14:58:53;;;;;;;3.15;1.10;;;;;;;;;;5084869;28;20044;-70
2022/04/28 15:01:19;;;;;;;4.07;1.10;;;;;;;;;;5084576;28;20724;-70
2022/04/28 15:03:46;;;;;;;5.22;1.25;;;;;;;;;;5067499;28;20292;-70
2022/04/28 15:06:13;;;;;;;3.45;1.05;;;;;;;;;;5083771;28;20632;-70
2022/04/28 15:08:41;;;;;;;4.50;1.20;;;;;;;;;;5084216;28;20052;-71
2022/04/28 15:11:08;;;;;;;3.50;1.27;;;;;;;;;;5084129;28;20069;-70
2022/04/28 15:13:35;;;;;;;4.65;1.20;;;;;;;;;;5084598;28;20299;-70
2022/04/28 15:16:01;;;;;;;4.88;1.13;;;;;;;;;;5067473;28;20071;-71
2022/04/28 15:18:27;;;;;;;5.43;1.50;;;;;;;;;;5091069;27;20104;-70
2022/04/28 15:20:54;;;;;;;4.05;1.25;;;;;;;;;;5104303;27;20070;-71
2022/04/28 15:23:20;;;;;;;3.50;1.00;;;;;;;;;;5104509;27;20039;-69
2022/04/28 15:25:46;;;;;;;3.92;1.40;;;;;;;;;;5103954;27;20043;-70